createdAt,value
2023-12-16T00:01:14.538Z,0.4
2023-12-16T00:06:15.458Z,0.3
2023-12-16T00:09:16.252Z,0.3
2023-12-16T00:11:16.892Z,0.3
2023-12-16T00:14:18.792Z,0.3
2023-12-16T00:16:19.373Z,0.3
2023-12-16T00:19:20.248Z,0.2
2023-12-16T00:21:21.115Z,0.1
2023-12-16T00:24:21.673Z,0.0
2023-12-16T00:26:22.255Z,0.1
2023-12-16T00:29:22.890Z,0.2
2023-12-16T00:31:23.494Z,0.2
2023-12-16T00:34:24.293Z,0.2
2023-12-16T00:37:25.251Z,0.3
2023-12-16T00:39:26.145Z,0.3
2023-12-16T00:41:26.750Z,0.3
2023-12-16T00:47:27.481Z,0.4
2023-12-16T00:49:28.384Z,0.3
2023-12-16T00:52:29.257Z,0.2
2023-12-16T00:54:29.846Z,0.2
2023-12-16T00:57:30.424Z,0.2
2023-12-16T00:59:31.018Z,0.1
2023-12-16T01:02:31.629Z,-0.1
2023-12-16T01:04:32.249Z,-0.1
2023-12-16T01:07:33.017Z,-0.1
2023-12-16T01:09:33.597Z,-0.1
2023-12-16T01:12:34.165Z,-0.1
2023-12-16T01:17:34.796Z,-0.2
2023-12-16T01:19:35.816Z,-0.2
2023-12-16T01:22:36.486Z,-0.3
2023-12-16T01:27:37.523Z,-0.4
2023-12-16T01:30:38.954Z,-0.4
2023-12-16T01:32:39.724Z,-0.3
2023-12-16T01:35:40.371Z,-0.3
2023-12-16T01:37:41.098Z,-0.2
2023-12-16T01:40:42.012Z,-0.2
2023-12-16T01:42:43.194Z,-0.3
2023-12-16T01:45:43.985Z,-0.3
2023-12-16T01:47:44.817Z,-0.3
2023-12-16T01:50:45.832Z,-0.4
2023-12-16T01:52:46.439Z,-0.3
2023-12-16T01:55:46.997Z,-0.3
2023-12-16T01:57:47.678Z,-0.3
2023-12-16T02:00:48.383Z,-0.3
2023-12-16T02:02:49.309Z,-0.4
2023-12-16T02:07:49.935Z,-0.4
2023-12-16T02:10:50.681Z,-0.4
2023-12-16T02:13:51.249Z,-0.5
2023-12-16T02:15:51.874Z,-0.5
2023-12-16T02:18:52.733Z,-0.5
2023-12-16T02:20:53.563Z,-0.5
2023-12-16T02:23:54.154Z,-0.5
2023-12-16T02:25:54.735Z,-0.6
2023-12-16T02:28:55.316Z,-0.6
2023-12-16T02:30:56.006Z,-0.6
2023-12-16T02:33:57.014Z,-0.6
2023-12-16T02:35:57.973Z,-0.5
2023-12-16T02:38:58.707Z,-0.5
2023-12-16T02:40:59.277Z,-0.5
2023-12-16T02:43:59.838Z,-0.5
2023-12-16T02:49:00.522Z,-0.5
2023-12-16T02:52:01.424Z,-0.5
2023-12-16T02:54:02.219Z,-0.5
2023-12-16T02:57:02.827Z,-0.5
2023-12-16T02:59:03.427Z,-0.5
2023-12-16T03:02:04.036Z,-0.6
2023-12-16T03:04:04.642Z,-0.6
2023-12-16T03:07:05.321Z,-0.5
2023-12-16T03:09:06.042Z,-0.6
2023-12-16T03:12:06.632Z,-0.6
2023-12-16T03:14:07.202Z,-0.6
2023-12-16T03:17:07.988Z,-0.6
2023-12-16T03:19:08.702Z,-0.6
2023-12-16T03:22:09.837Z,-0.6
2023-12-16T03:25:10.628Z,-0.6
2023-12-16T03:30:11.430Z,-0.6
2023-12-16T03:32:12.143Z,-0.6
2023-12-16T03:35:12.742Z,-0.6
2023-12-16T03:37:13.490Z,-0.6
2023-12-16T03:40:14.380Z,-0.6
2023-12-16T03:42:15.244Z,-0.5
2023-12-16T03:45:15.913Z,-0.5
2023-12-16T03:47:16.495Z,-0.5
2023-12-16T03:50:17.123Z,-0.5
2023-12-16T03:52:17.754Z,-0.4
2023-12-16T03:55:18.526Z,-0.5
2023-12-16T03:57:19.174Z,-0.4
2023-12-16T04:00:19.789Z,-0.4
2023-12-16T04:02:20.652Z,-0.4
2023-12-16T04:05:21.247Z,-0.3
2023-12-16T04:10:21.960Z,-0.4
2023-12-16T04:12:22.683Z,-0.4
2023-12-16T04:15:23.278Z,-0.3
2023-12-16T04:18:23.936Z,-0.3
2023-12-16T04:20:25.004Z,-0.3
2023-12-16T04:23:25.648Z,-0.2
2023-12-16T04:25:26.237Z,-0.2
2023-12-16T04:28:27.298Z,-0.2
2023-12-16T04:30:28.048Z,-0.3
2023-12-16T04:33:28.793Z,-0.3
2023-12-16T04:35:29.607Z,-0.3
2023-12-16T04:38:30.223Z,-0.3
2023-12-16T04:40:30.829Z,-0.2
2023-12-16T04:43:31.601Z,-0.2
2023-12-16T04:45:32.284Z,-0.1
2023-12-16T04:51:32.877Z,-0.2
2023-12-16T04:53:33.456Z,-0.1
2023-12-16T04:56:34.095Z,-0.1
2023-12-16T04:58:34.680Z,-0.1
2023-12-16T05:01:35.348Z,0.0
2023-12-16T05:03:36.210Z,0.0
2023-12-16T05:06:36.933Z,0.0
2023-12-16T05:08:37.618Z,0.0
2023-12-16T05:11:38.306Z,0.0
2023-12-16T05:13:38.914Z,0.1
2023-12-16T05:16:39.552Z,0.1
2023-12-16T05:18:40.348Z,0.1
2023-12-16T05:21:41.258Z,0.1
2023-12-16T05:23:41.825Z,0.1
2023-12-16T05:26:42.426Z,0.1
2023-12-16T05:31:43.077Z,0.1
2023-12-16T05:34:43.952Z,0.1
2023-12-16T05:36:44.689Z,0.1
2023-12-16T05:39:45.244Z,0.2
2023-12-16T05:41:45.820Z,0.2
2023-12-16T05:44:46.453Z,0.3
2023-12-16T05:46:47.066Z,0.2
2023-12-16T05:49:47.660Z,0.2
2023-12-16T05:51:48.410Z,0.2
2023-12-16T05:54:49.162Z,0.2
2023-12-16T05:56:49.827Z,0.2
2023-12-16T05:59:50.404Z,0.2
2023-12-16T06:01:51.054Z,0.2
2023-12-16T06:04:51.930Z,0.3
2023-12-16T06:06:52.564Z,0.3
2023-12-16T06:11:53.301Z,0.2
2023-12-16T06:14:53.887Z,0.2
2023-12-16T06:17:54.590Z,0.2
2023-12-16T06:19:55.667Z,0.2
2023-12-16T06:22:56.352Z,0.2
2023-12-16T06:24:56.949Z,0.2
2023-12-16T06:27:57.630Z,0.2
2023-12-16T06:29:58.238Z,0.1
2023-12-16T06:34:58.816Z,0.1
2023-12-16T06:37:59.399Z,0.1
2023-12-16T06:40:02.778Z,0.1
2023-12-16T06:43:05.119Z,0.1
2023-12-16T06:45:05.754Z,0.2
2023-12-16T06:48:06.412Z,0.1
2023-12-16T06:53:07.323Z,0.2
2023-12-16T06:55:08.014Z,0.2
2023-12-16T06:58:08.841Z,0.2
2023-12-16T07:00:09.518Z,0.2
2023-12-16T07:03:10.206Z,0.2
2023-12-16T07:06:10.903Z,0.2
2023-12-16T07:08:11.644Z,0.2
2023-12-16T07:11:12.230Z,0.2
2023-12-16T07:13:12.866Z,0.2
2023-12-16T07:16:13.589Z,0.2
2023-12-16T07:18:14.334Z,0.2
2023-12-16T07:21:15.137Z,0.1
2023-12-16T07:23:15.706Z,0.1
2023-12-16T07:26:16.307Z,0.1
2023-12-16T07:28:16.956Z,0.1
2023-12-16T07:33:17.672Z,0.1
2023-12-16T07:36:18.522Z,0.1
2023-12-16T07:38:19.106Z,0.1
2023-12-16T07:41:19.682Z,0.1
2023-12-16T07:44:20.277Z,0.1
2023-12-16T07:46:20.909Z,0.1
2023-12-16T07:49:21.802Z,0.1
2023-12-16T07:51:22.564Z,0.2
2023-12-16T07:54:23.150Z,0.1
2023-12-16T07:56:23.730Z,0.1
2023-12-16T07:59:24.331Z,0.1
2023-12-16T08:01:25.030Z,0.1
2023-12-16T08:04:25.978Z,0.0
2023-12-16T08:06:26.845Z,0.0
2023-12-16T08:09:27.632Z,0.0
2023-12-16T08:14:28.231Z,0.0
2023-12-16T08:17:28.864Z,0.1
2023-12-16T08:19:29.608Z,0.1
2023-12-16T08:22:30.755Z,0.2
2023-12-16T08:24:31.633Z,0.3
2023-12-16T08:26:32.206Z,0.3
2023-12-16T08:29:32.803Z,0.3
2023-12-16T08:32:33.383Z,0.4
2023-12-16T08:34:34.203Z,0.5
2023-12-16T08:37:35.076Z,0.6
2023-12-16T08:39:35.870Z,0.6
2023-12-16T08:42:36.474Z,0.7
2023-12-16T08:44:37.054Z,0.7
2023-12-16T08:47:37.953Z,0.7
2023-12-16T08:49:39.631Z,0.8
2023-12-16T08:54:40.600Z,0.9
2023-12-16T08:57:41.406Z,0.9
2023-12-16T08:59:42.608Z,0.9
2023-12-16T09:02:43.221Z,0.9
2023-12-16T09:04:43.966Z,0.9
2023-12-16T09:07:44.742Z,0.9
2023-12-16T09:10:45.476Z,0.8
2023-12-16T09:12:46.078Z,0.9
2023-12-16T09:15:46.667Z,0.9
2023-12-16T09:17:47.818Z,0.9
2023-12-16T09:20:48.617Z,0.9
2023-12-16T09:22:49.209Z,0.9
2023-12-16T09:25:49.786Z,0.9
2023-12-16T09:27:50.410Z,0.9
2023-12-16T09:30:51.311Z,0.9
2023-12-16T09:35:52.152Z,1.1
2023-12-16T09:37:52.748Z,1.0
2023-12-16T09:40:53.346Z,1.1
2023-12-16T09:42:54.310Z,1.1
2023-12-16T09:45:55.078Z,1.2
2023-12-16T09:48:55.893Z,1.2
2023-12-16T09:50:56.728Z,1.3
2023-12-16T09:53:57.347Z,1.2
2023-12-16T09:55:57.966Z,1.4
2023-12-16T09:58:58.546Z,1.3
2023-12-16T10:00:59.191Z,1.4
2023-12-16T10:04:00.078Z,1.5
2023-12-16T10:06:00.861Z,1.5
2023-12-16T10:09:01.611Z,1.6
2023-12-16T10:16:15.347Z,2.0
2023-12-16T10:19:16.075Z,1.9
2023-12-16T10:21:22.400Z,2.0
2023-12-16T10:24:26.847Z,2.0
2023-12-16T10:26:27.450Z,1.9
2023-12-16T10:29:28.038Z,2.0
2023-12-16T10:31:28.654Z,1.9
2023-12-16T10:34:29.351Z,2.0
2023-12-16T10:36:30.016Z,2.0
2023-12-16T10:39:30.582Z,2.0
2023-12-16T10:41:31.255Z,2.1
2023-12-16T10:44:31.910Z,2.1
2023-12-16T10:46:32.651Z,2.1
2023-12-16T10:49:33.498Z,2.2
2023-12-16T10:51:34.309Z,2.2
2023-12-16T10:57:35.125Z,2.2
2023-12-16T10:59:35.686Z,2.3
2023-12-16T11:02:36.274Z,2.3
2023-12-16T11:04:37.361Z,2.3
2023-12-16T11:07:38.321Z,2.3
2023-12-16T11:09:39.993Z,2.3
2023-12-16T11:12:40.613Z,2.3
2023-12-16T11:14:41.209Z,2.3
2023-12-16T11:17:42.009Z,2.2
2023-12-16T11:19:43.538Z,2.2
2023-12-16T11:22:44.256Z,2.2
2023-12-16T11:24:44.854Z,2.2
2023-12-16T11:27:45.436Z,2.3
2023-12-16T11:29:46.002Z,2.3
2023-12-16T11:32:46.983Z,2.3
2023-12-16T11:37:47.849Z,2.3
2023-12-16T11:39:48.410Z,2.3
2023-12-16T11:42:48.988Z,2.3
2023-12-16T11:44:49.883Z,2.4
2023-12-16T11:47:50.509Z,2.5
2023-12-16T11:50:51.244Z,2.5
2023-12-16T11:52:51.989Z,2.6
2023-12-16T11:55:52.579Z,2.7
2023-12-16T11:57:53.157Z,2.8
2023-12-16T12:00:53.940Z,2.9
2023-12-16T12:02:54.774Z,3.0
2023-12-16T12:05:55.393Z,3.1
2023-12-16T12:07:56.061Z,3.1
2023-12-16T12:10:56.624Z,3.1
2023-12-16T12:12:57.296Z,3.1
2023-12-16T12:17:58.092Z,3.3
2023-12-16T12:20:59.009Z,3.4
2023-12-16T12:23:01.785Z,3.3
2023-12-16T12:26:07.660Z,3.4
2023-12-16T12:28:08.553Z,3.4
2023-12-16T12:31:09.362Z,3.7
2023-12-16T12:34:10.340Z,3.7
2023-12-16T12:36:11.416Z,3.9
2023-12-16T12:39:12.313Z,3.8
2023-12-16T12:41:12.997Z,3.7
2023-12-16T12:44:13.567Z,3.7
2023-12-16T12:46:14.172Z,3.8
2023-12-16T12:49:14.840Z,3.7
2023-12-16T12:51:16.045Z,3.5
2023-12-16T12:54:16.760Z,3.4
2023-12-16T12:59:56.210Z,2.9
2023-12-16T13:01:06.574Z,2.9
2023-12-16T13:04:08.866Z,2.8
2023-12-16T13:06:09.827Z,2.7
2023-12-16T13:09:11.062Z,2.7
2023-12-16T13:12:11.800Z,2.7
2023-12-16T13:14:12.821Z,2.7
2023-12-16T13:16:29.720Z,2.7
2023-12-16T13:19:30.490Z,2.7
2023-12-16T13:21:31.433Z,2.6
2023-12-16T13:24:32.013Z,2.6
2023-12-16T13:27:32.663Z,2.6
2023-12-16T13:29:33.191Z,2.6
2023-12-16T13:32:34.064Z,2.7
2023-12-16T13:34:35.111Z,2.6
2023-12-16T13:39:36.178Z,2.6
2023-12-16T13:42:36.757Z,2.5
2023-12-16T13:44:37.326Z,2.4
2023-12-16T13:47:38.380Z,2.5
2023-12-16T13:49:40.283Z,2.4
2023-12-16T13:52:41.053Z,2.4
2023-12-16T13:54:41.840Z,2.5
2023-12-16T13:57:42.770Z,2.4
2023-12-16T13:59:43.932Z,2.5
2023-12-16T14:02:44.633Z,2.5
2023-12-16T14:04:45.402Z,2.4
2023-12-16T14:07:47.006Z,2.4
2023-12-16T14:09:47.619Z,2.4
2023-12-16T14:12:48.250Z,2.4
2023-12-16T14:14:48.840Z,2.3
2023-12-16T14:20:49.512Z,2.1
2023-12-16T14:22:50.155Z,2.1
2023-12-16T14:25:50.750Z,2.0
2023-12-16T14:27:51.363Z,2.0
2023-12-16T14:30:51.923Z,1.9
2023-12-16T14:32:52.806Z,1.8
2023-12-16T14:35:53.929Z,1.8
2023-12-16T14:37:54.902Z,1.8
2023-12-16T14:40:55.593Z,1.7
2023-12-16T14:42:56.159Z,1.6
2023-12-16T14:45:56.855Z,1.5
2023-12-16T14:47:57.743Z,1.5
2023-12-16T14:50:58.611Z,1.5
2023-12-16T14:52:59.302Z,1.6
2023-12-16T14:55:59.900Z,1.6
2023-12-16T15:01:00.533Z,1.7
2023-12-16T15:04:01.222Z,1.6
2023-12-16T15:06:12.161Z,1.5
2023-12-16T15:08:31.497Z,1.5
2023-12-16T15:11:32.182Z,1.5
2023-12-16T15:13:32.915Z,1.4
2023-12-16T15:16:33.531Z,1.4
2023-12-16T15:18:34.192Z,1.4
2023-12-16T15:21:35.242Z,1.4
2023-12-16T15:23:35.872Z,1.3
2023-12-16T15:26:36.609Z,1.2
2023-12-16T15:28:37.212Z,1.1
2023-12-16T15:31:37.825Z,0.9
2023-12-16T15:33:38.472Z,0.7
2023-12-16T15:36:39.536Z,0.6
2023-12-16T15:41:40.206Z,0.3
2023-12-16T15:49:41.234Z,-0.1
2023-12-16T15:51:42.663Z,-0.2
2023-12-16T15:54:43.238Z,-0.3
2023-12-16T15:56:44.131Z,-0.5
2023-12-16T15:59:45.027Z,-0.5
2023-12-16T16:01:45.661Z,-0.7
2023-12-16T16:04:46.491Z,-0.7
2023-12-16T16:06:47.063Z,-0.8
2023-12-16T16:09:48.079Z,-0.9
2023-12-16T16:11:48.698Z,-1.0
2023-12-16T16:14:49.394Z,-1.0
2023-12-16T16:17:50.229Z,-1.0
2023-12-16T16:22:51.334Z,-1.2
2023-12-16T16:24:51.904Z,-1.2
2023-12-16T16:27:52.487Z,-1.3
2023-12-16T16:29:53.060Z,-1.3
2023-12-16T16:32:53.752Z,-1.5
2023-12-16T16:34:54.748Z,-1.5
2023-12-16T16:37:55.488Z,-1.5
2023-12-16T16:39:56.066Z,-1.7
2023-12-16T16:42:56.641Z,-1.6
2023-12-16T16:44:57.247Z,-1.6
2023-12-16T16:47:57.954Z,-1.7
2023-12-16T16:49:58.986Z,-1.8
2023-12-16T16:52:59.614Z,-1.8
2023-12-16T16:55:00.240Z,-1.9
2023-12-16T16:58:00.851Z,-1.9
2023-12-16T17:03:01.484Z,-1.9
2023-12-16T17:06:02.343Z,-1.9
2023-12-16T17:08:03.121Z,-1.9
2023-12-16T17:11:03.739Z,-1.8
2023-12-16T17:13:04.341Z,-1.9
2023-12-16T17:16:04.982Z,-2.0
2023-12-16T17:18:05.691Z,-2.1
2023-12-16T17:21:06.641Z,-2.0
2023-12-16T17:23:07.455Z,-2.1
2023-12-16T17:26:08.040Z,-2.1
2023-12-16T17:28:08.653Z,-2.1
2023-12-16T17:31:09.235Z,-2.1
2023-12-16T17:33:10.085Z,-2.1
2023-12-16T17:36:11.104Z,-2.1
2023-12-16T17:38:11.817Z,-2.0
2023-12-16T17:44:12.395Z,-2.1
2023-12-16T17:46:13.008Z,-2.2
2023-12-16T17:49:13.653Z,-2.3
2023-12-16T17:51:14.599Z,-2.4
2023-12-16T17:54:15.478Z,-2.4
2023-12-16T17:56:16.286Z,-2.5
2023-12-16T17:59:16.848Z,-2.5
2023-12-16T18:01:17.603Z,-2.5
2023-12-16T18:04:18.520Z,-2.5
2023-12-16T18:06:19.119Z,-2.5
2023-12-16T18:09:20.028Z,-2.5
2023-12-16T18:11:20.842Z,-2.5
2023-12-16T18:14:21.450Z,-2.5
2023-12-16T18:16:22.051Z,-2.5
2023-12-16T18:19:22.743Z,-2.7
2023-12-16T18:24:23.839Z,-2.7
2023-12-16T18:27:24.392Z,-2.7
2023-12-16T18:29:24.973Z,-2.7
2023-12-16T18:34:25.753Z,-2.8
2023-12-16T18:37:26.433Z,-2.8
2023-12-16T18:39:26.993Z,-2.9
2023-12-16T18:42:27.618Z,-2.9
2023-12-16T18:44:28.194Z,-3.1
2023-12-16T18:47:28.813Z,-3.1
2023-12-16T18:49:29.565Z,-3.2
2023-12-16T18:52:30.379Z,-3.2
2023-12-16T18:54:30.968Z,-3.3
2023-12-16T18:57:31.805Z,-3.4
2023-12-16T18:59:32.397Z,-3.5
2023-12-16T19:05:32.983Z,-3.4
2023-12-16T19:07:33.562Z,-3.4
2023-12-16T19:10:34.138Z,-3.3
2023-12-16T19:12:34.726Z,-3.3
2023-12-16T19:15:35.341Z,-3.3
2023-12-16T19:17:36.028Z,-3.1
2023-12-16T19:20:37.262Z,-3.1
2023-12-16T19:22:38.175Z,-3.1
2023-12-16T19:25:38.755Z,-3.1
2023-12-16T19:27:39.507Z,-3.1
2023-12-16T19:30:40.723Z,-3.1
2023-12-16T19:32:41.486Z,-3.1
2023-12-16T19:35:42.381Z,-3.1
2023-12-16T19:37:43.287Z,-3.1
2023-12-16T19:40:43.865Z,-3.1
2023-12-16T19:45:44.427Z,-3.3
2023-12-16T19:47:45.583Z,-3.3
2023-12-16T19:50:48.011Z,-3.4
2023-12-16T19:53:48.769Z,-3.5
2023-12-16T19:55:49.532Z,-3.6
2023-12-16T19:58:50.116Z,-3.7
2023-12-16T20:00:50.711Z,-3.8
2023-12-16T20:03:51.456Z,-3.8
2023-12-16T20:05:52.180Z,-3.8
2023-12-16T20:08:53.301Z,-3.8
2023-12-16T20:10:54.025Z,-3.5
2023-12-16T20:13:54.607Z,-3.3
2023-12-16T20:15:55.201Z,-3.1
2023-12-16T20:18:55.831Z,-3.0
2023-12-16T20:20:56.787Z,-3.2
2023-12-16T20:26:57.493Z,-3.4
2023-12-16T20:31:58.194Z,-3.4
2023-12-16T20:33:58.864Z,-3.6
2023-12-16T20:36:59.826Z,-3.6
2023-12-16T20:39:00.444Z,-3.7
2023-12-16T20:42:01.217Z,-3.7
2023-12-16T20:44:02.047Z,-3.9
2023-12-16T20:47:02.690Z,-3.8
2023-12-16T20:49:03.378Z,-3.7
2023-12-16T20:52:04.448Z,-3.8
2023-12-16T20:54:05.094Z,-3.8
2023-12-16T20:57:05.812Z,-3.9
2023-12-16T20:59:06.531Z,-4.0
2023-12-16T21:02:07.145Z,-3.9
2023-12-16T21:07:07.794Z,-3.9
2023-12-16T21:09:08.406Z,-3.9
2023-12-16T21:12:09.287Z,-3.9
2023-12-16T21:14:10.233Z,-3.9
2023-12-16T21:17:11.218Z,-3.8
2023-12-16T21:20:11.793Z,-3.9
2023-12-16T21:22:12.478Z,-3.9
2023-12-16T21:25:13.033Z,-3.8
2023-12-16T21:27:13.657Z,-3.7
2023-12-16T21:30:14.415Z,-3.6
2023-12-16T21:32:15.383Z,-3.6
2023-12-16T21:35:16.257Z,-3.5
2023-12-16T21:40:16.845Z,-3.6
2023-12-16T21:42:17.663Z,-3.7
2023-12-16T21:47:20.924Z,-3.8
2023-12-16T21:50:21.512Z,-3.9
2023-12-16T21:52:22.102Z,-4.0
2023-12-16T21:55:22.704Z,-4.0
2023-12-16T21:58:23.279Z,-4.1
2023-12-16T22:00:23.894Z,-4.1
2023-12-16T22:03:24.899Z,-4.2
2023-12-16T22:05:25.865Z,-4.1
2023-12-16T22:08:28.119Z,-4.1
2023-12-16T22:10:46.063Z,-4.2
2023-12-16T22:12:46.652Z,-4.1
2023-12-16T22:15:47.242Z,-4.2
2023-12-16T22:17:47.934Z,-4.2
2023-12-16T22:20:48.781Z,-4.2
2023-12-16T22:22:49.649Z,-4.2
2023-12-16T22:28:50.315Z,-4.1
2023-12-16T22:30:50.948Z,-4.1
2023-12-16T22:33:51.709Z,-4.1
2023-12-16T22:35:52.631Z,-4.1
2023-12-16T22:38:53.388Z,-4.1
2023-12-16T22:40:55.833Z,-4.0
2023-12-16T22:43:58.780Z,-3.9
2023-12-16T22:45:59.365Z,-3.9
2023-12-16T22:49:00.103Z,-3.8
2023-12-16T22:51:01.526Z,-3.8
2023-12-16T22:54:02.537Z,-3.7
2023-12-16T22:56:03.242Z,-3.8
2023-12-16T22:59:03.834Z,-3.8
2023-12-16T23:01:04.503Z,-3.9
2023-12-16T23:04:05.275Z,-3.9
2023-12-16T23:09:06.041Z,-3.8
2023-12-16T23:11:06.734Z,-3.8
2023-12-16T23:14:07.345Z,-3.8
2023-12-16T23:16:07.960Z,-3.8
2023-12-16T23:19:08.702Z,-3.7
2023-12-16T23:22:09.727Z,-3.8
2023-12-16T23:24:10.323Z,-3.8
2023-12-16T23:27:11.174Z,-3.7
2023-12-16T23:29:11.844Z,-3.7
2023-12-16T23:32:12.496Z,-3.7
2023-12-16T23:37:13.107Z,-3.6
2023-12-16T23:39:13.741Z,-3.6
2023-12-16T23:42:14.661Z,-3.6
2023-12-16T23:44:15.443Z,-3.6
2023-12-16T23:49:16.098Z,-3.6
2023-12-16T23:52:17.180Z,-3.5
2023-12-16T23:55:17.832Z,-3.5
2023-12-16T23:57:18.511Z,-3.5
